sensor_id;sensor_type;location;lat;lon;timestamp;temperature;humidity
20370;DHT22;10344;47.592;9.600;2024-03-02T00:00:42;7.20;99.90
20370;DHT22;10344;47.592;9.600;2024-03-02T00:03:08;7.30;99.90
20370;DHT22;10344;47.592;9.600;2024-03-02T00:05:35;7.30;99.90
20370;DHT22;10344;47.592;9.600;2024-03-02T00:08:04;7.20;99.90
20370;DHT22;10344;47.592;9.600;2024-03-02T00:10:40;7.20;99.90
20370;DHT22;10344;47.592;9.600;2024-03-02T00:13:09;7.20;99.90
20370;DHT22;10344;47.592;9.600;2024-03-02T00:15:51;7.10;99.90
20370;DHT22;10344;47.592;9.600;2024-03-02T00:18:25;7.10;99.90
20370;DHT22;10344;47.592;9.600;2024-03-02T00:20:54;7.10;99.90
20370;DHT22;10344;47.592;9.600;2024-03-02T00:23:23;7.10;99.90
20370;DHT22;10344;47.592;9.600;2024-03-02T00:25:50;7.10;99.90
20370;DHT22;10344;47.592;9.600;2024-03-02T00:28:26;7.10;99.90
20370;DHT22;10344;47.592;9.600;2024-03-02T00:33:26;7.00;99.90
20370;DHT22;10344;47.592;9.600;2024-03-02T00:35:52;7.00;99.90
20370;DHT22;10344;47.592;9.600;2024-03-02T00:38:18;6.90;99.90
20370;DHT22;10344;47.592;9.600;2024-03-02T00:40:44;6.90;99.90
20370;DHT22;10344;47.592;9.600;2024-03-02T00:45:49;6.90;99.90
20370;DHT22;10344;47.592;9.600;2024-03-02T00:48:15;7.00;99.90
20370;DHT22;10344;47.592;9.600;2024-03-02T00:50:42;7.00;99.90
20370;DHT22;10344;47.592;9.600;2024-03-02T00:53:13;7.00;99.90
20370;DHT22;10344;47.592;9.600;2024-03-02T00:55:39;7.00;99.90
20370;DHT22;10344;47.592;9.600;2024-03-02T00:58:09;6.90;99.90
20370;DHT22;10344;47.592;9.600;2024-03-02T01:00:35;6.90;99.90
20370;DHT22;10344;47.592;9.600;2024-03-02T01:03:00;6.90;99.90
20370;DHT22;10344;47.592;9.600;2024-03-02T01:05:26;6.90;99.90
20370;DHT22;10344;47.592;9.600;2024-03-02T01:07:51;6.80;99.90
20370;DHT22;10344;47.592;9.600;2024-03-02T01:10:17;6.80;99.90
20370;DHT22;10344;47.592;9.600;2024-03-02T01:12:45;6.80;99.90
20370;DHT22;10344;47.592;9.600;2024-03-02T01:15:13;6.80;99.90
20370;DHT22;10344;47.592;9.600;2024-03-02T01:17:41;6.90;99.90
20370;DHT22;10344;47.592;9.600;2024-03-02T01:20:08;6.90;99.90
20370;DHT22;10344;47.592;9.600;2024-03-02T01:22:36;6.90;99.90
20370;DHT22;10344;47.592;9.600;2024-03-02T01:25:03;7.00;99.90
20370;DHT22;10344;47.592;9.600;2024-03-02T01:27:29;7.00;99.90
20370;DHT22;10344;47.592;9.600;2024-03-02T01:29:54;7.00;99.90
20370;DHT22;10344;47.592;9.600;2024-03-02T01:32:20;7.10;99.90
20370;DHT22;10344;47.592;9.600;2024-03-02T01:34:46;7.00;99.90
20370;DHT22;10344;47.592;9.600;2024-03-02T01:37:11;7.00;99.90
20370;DHT22;10344;47.592;9.600;2024-03-02T01:39:37;7.00;99.90
20370;DHT22;10344;47.592;9.600;2024-03-02T01:42:03;7.10;99.90
20370;DHT22;10344;47.592;9.600;2024-03-02T01:44:28;7.20;99.90
20370;DHT22;10344;47.592;9.600;2024-03-02T01:46:54;7.10;99.90
20370;DHT22;10344;47.592;9.600;2024-03-02T01:49:19;7.20;99.90
20370;DHT22;10344;47.592;9.600;2024-03-02T01:51:45;7.10;99.90
20370;DHT22;10344;47.592;9.600;2024-03-02T01:54:11;7.10;99.90
20370;DHT22;10344;47.592;9.600;2024-03-02T01:56:37;7.10;99.90
20370;DHT22;10344;47.592;9.600;2024-03-02T01:59:03;7.10;99.90
20370;DHT22;10344;47.592;9.600;2024-03-02T02:01:29;7.10;99.90
20370;DHT22;10344;47.592;9.600;2024-03-02T02:03:57;7.10;99.90
20370;DHT22;10344;47.592;9.600;2024-03-02T02:06:22;7.10;99.90
20370;DHT22;10344;47.592;9.600;2024-03-02T02:08:48;7.00;99.90
20370;DHT22;10344;47.592;9.600;2024-03-02T02:11:17;7.00;99.90
20370;DHT22;10344;47.592;9.600;2024-03-02T02:13:43;6.90;99.90
20370;DHT22;10344;47.592;9.600;2024-03-02T02:16:09;6.80;99.90
20370;DHT22;10344;47.592;9.600;2024-03-02T02:18:37;6.90;99.90
20370;DHT22;10344;47.592;9.600;2024-03-02T02:21:03;6.80;99.90
20370;DHT22;10344;47.592;9.600;2024-03-02T02:23:29;6.70;99.90
20370;DHT22;10344;47.592;9.600;2024-03-02T02:25:54;6.70;99.90
20370;DHT22;10344;47.592;9.600;2024-03-02T02:28:20;6.70;99.90
20370;DHT22;10344;47.592;9.600;2024-03-02T02:30:46;6.60;99.90
20370;DHT22;10344;47.592;9.600;2024-03-02T02:33:11;6.60;99.90
20370;DHT22;10344;47.592;9.600;2024-03-02T02:35:37;6.60;99.90
20370;DHT22;10344;47.592;9.600;2024-03-02T02:38:03;6.70;99.90
20370;DHT22;10344;47.592;9.600;2024-03-02T02:40:29;6.70;99.90
20370;DHT22;10344;47.592;9.600;2024-03-02T02:42:57;6.70;99.90
20370;DHT22;10344;47.592;9.600;2024-03-02T02:45:22;6.70;99.90
20370;DHT22;10344;47.592;9.600;2024-03-02T02:47:48;6.80;99.90
20370;DHT22;10344;47.592;9.600;2024-03-02T02:50:18;6.80;99.90
20370;DHT22;10344;47.592;9.600;2024-03-02T02:52:44;6.80;99.90
20370;DHT22;10344;47.592;9.600;2024-03-02T02:55:13;6.80;99.90
20370;DHT22;10344;47.592;9.600;2024-03-02T02:57:42;6.80;99.90
20370;DHT22;10344;47.592;9.600;2024-03-02T03:00:12;6.90;99.90
20370;DHT22;10344;47.592;9.600;2024-03-02T03:02:48;6.90;99.90
20370;DHT22;10344;47.592;9.600;2024-03-02T03:05:17;6.80;99.90
20370;DHT22;10344;47.592;9.600;2024-03-02T03:07:43;6.80;99.90
20370;DHT22;10344;47.592;9.600;2024-03-02T03:10:13;6.70;99.90
20370;DHT22;10344;47.592;9.600;2024-03-02T03:12:39;6.70;99.90
20370;DHT22;10344;47.592;9.600;2024-03-02T03:15:06;6.60;99.90
20370;DHT22;10344;47.592;9.600;2024-03-02T03:17:34;6.60;99.90
20370;DHT22;10344;47.592;9.600;2024-03-02T03:20:01;6.60;99.90
20370;DHT22;10344;47.592;9.600;2024-03-02T03:22:30;6.50;99.90
20370;DHT22;10344;47.592;9.600;2024-03-02T03:25:00;6.50;99.90
20370;DHT22;10344;47.592;9.600;2024-03-02T03:27:26;6.60;99.90
20370;DHT22;10344;47.592;9.600;2024-03-02T03:29:52;6.70;99.90
20370;DHT22;10344;47.592;9.600;2024-03-02T03:32:17;6.70;99.90
20370;DHT22;10344;47.592;9.600;2024-03-02T03:34:43;6.60;99.90
20370;DHT22;10344;47.592;9.600;2024-03-02T03:37:09;6.50;99.90
20370;DHT22;10344;47.592;9.600;2024-03-02T03:39:35;6.50;99.90
20370;DHT22;10344;47.592;9.600;2024-03-02T03:42:01;6.50;99.90
20370;DHT22;10344;47.592;9.600;2024-03-02T03:44:27;6.50;99.90
20370;DHT22;10344;47.592;9.600;2024-03-02T03:46:52;6.40;99.90
20370;DHT22;10344;47.592;9.600;2024-03-02T03:49:18;6.50;99.90
20370;DHT22;10344;47.592;9.600;2024-03-02T03:51:44;6.40;99.90
20370;DHT22;10344;47.592;9.600;2024-03-02T03:54:09;6.50;99.90
20370;DHT22;10344;47.592;9.600;2024-03-02T03:56:39;6.50;99.90
20370;DHT22;10344;47.592;9.600;2024-03-02T03:59:05;6.50;99.90
20370;DHT22;10344;47.592;9.600;2024-03-02T04:01:31;6.50;99.90
20370;DHT22;10344;47.592;9.600;2024-03-02T04:04:01;6.40;99.90
20370;DHT22;10344;47.592;9.600;2024-03-02T04:06:29;6.30;99.90
20370;DHT22;10344;47.592;9.600;2024-03-02T04:08:57;6.30;99.90
20370;DHT22;10344;47.592;9.600;2024-03-02T04:11:23;6.30;99.90
20370;DHT22;10344;47.592;9.600;2024-03-02T04:13:49;6.40;99.90
20370;DHT22;10344;47.592;9.600;2024-03-02T04:16:16;6.50;99.90
20370;DHT22;10344;47.592;9.600;2024-03-02T04:18:42;6.50;99.90
20370;DHT22;10344;47.592;9.600;2024-03-02T04:21:07;6.50;99.90
20370;DHT22;10344;47.592;9.600;2024-03-02T04:23:33;6.40;99.90
20370;DHT22;10344;47.592;9.600;2024-03-02T04:25:59;6.40;99.90
20370;DHT22;10344;47.592;9.600;2024-03-02T04:28:24;6.40;99.90
20370;DHT22;10344;47.592;9.600;2024-03-02T04:30:50;6.40;99.90
20370;DHT22;10344;47.592;9.600;2024-03-02T04:33:16;6.50;99.90
20370;DHT22;10344;47.592;9.600;2024-03-02T04:35:41;6.60;99.90
20370;DHT22;10344;47.592;9.600;2024-03-02T04:38:07;6.80;99.90
20370;DHT22;10344;47.592;9.600;2024-03-02T04:40:32;6.70;99.90
20370;DHT22;10344;47.592;9.600;2024-03-02T04:43:00;6.70;99.90
20370;DHT22;10344;47.592;9.600;2024-03-02T04:45:26;6.70;99.90
20370;DHT22;10344;47.592;9.600;2024-03-02T04:47:51;6.80;99.90
20370;DHT22;10344;47.592;9.600;2024-03-02T04:50:17;6.90;99.90
20370;DHT22;10344;47.592;9.600;2024-03-02T04:52:45;6.90;99.90
20370;DHT22;10344;47.592;9.600;2024-03-02T04:55:10;6.80;99.90
20370;DHT22;10344;47.592;9.600;2024-03-02T04:57:42;6.80;99.90
20370;DHT22;10344;47.592;9.600;2024-03-02T05:00:11;6.70;99.90
20370;DHT22;10344;47.592;9.600;2024-03-02T05:02:38;6.60;99.90
20370;DHT22;10344;47.592;9.600;2024-03-02T05:05:06;6.70;99.90
20370;DHT22;10344;47.592;9.600;2024-03-02T05:07:31;6.70;99.90
20370;DHT22;10344;47.592;9.600;2024-03-02T05:09:57;6.70;99.90
20370;DHT22;10344;47.592;9.600;2024-03-02T05:12:23;6.60;99.90
20370;DHT22;10344;47.592;9.600;2024-03-02T05:15:15;6.60;99.90
20370;DHT22;10344;47.592;9.600;2024-03-02T05:17:41;6.60;99.90
20370;DHT22;10344;47.592;9.600;2024-03-02T05:20:10;6.60;99.90
20370;DHT22;10344;47.592;9.600;2024-03-02T05:22:36;6.60;99.90
20370;DHT22;10344;47.592;9.600;2024-03-02T05:25:03;6.60;99.90
20370;DHT22;10344;47.592;9.600;2024-03-02T05:27:29;6.60;99.90
20370;DHT22;10344;47.592;9.600;2024-03-02T05:29:54;6.50;99.90
20370;DHT22;10344;47.592;9.600;2024-03-02T05:32:20;6.50;99.90
20370;DHT22;10344;47.592;9.600;2024-03-02T05:34:48;6.50;99.90
20370;DHT22;10344;47.592;9.600;2024-03-02T05:37:14;6.50;99.90
20370;DHT22;10344;47.592;9.600;2024-03-02T05:39:41;6.50;99.90
20370;DHT22;10344;47.592;9.600;2024-03-02T05:42:09;6.50;99.90
20370;DHT22;10344;47.592;9.600;2024-03-02T05:44:37;6.40;99.90
20370;DHT22;10344;47.592;9.600;2024-03-02T05:47:03;6.40;99.90
20370;DHT22;10344;47.592;9.600;2024-03-02T05:49:29;6.40;99.90
20370;DHT22;10344;47.592;9.600;2024-03-02T05:51:57;6.40;99.90
20370;DHT22;10344;47.592;9.600;2024-03-02T05:54:23;6.40;99.90
20370;DHT22;10344;47.592;9.600;2024-03-02T05:56:48;6.40;99.90
20370;DHT22;10344;47.592;9.600;2024-03-02T05:59:14;6.40;99.90
20370;DHT22;10344;47.592;9.600;2024-03-02T06:01:46;6.40;99.90
20370;DHT22;10344;47.592;9.600;2024-03-02T06:04:12;6.40;99.90
20370;DHT22;10344;47.592;9.600;2024-03-02T06:06:38;6.40;99.90
20370;DHT22;10344;47.592;9.600;2024-03-02T06:09:05;6.40;99.90
20370;DHT22;10344;47.592;9.600;2024-03-02T06:11:33;6.40;99.90
20370;DHT22;10344;47.592;9.600;2024-03-02T06:13:59;6.40;99.90
20370;DHT22;10344;47.592;9.600;2024-03-02T06:16:29;6.40;99.90
20370;DHT22;10344;47.592;9.600;2024-03-02T06:18:58;6.40;99.90
20370;DHT22;10344;47.592;9.600;2024-03-02T06:21:24;6.40;99.90
20370;DHT22;10344;47.592;9.600;2024-03-02T06:23:50;6.30;99.90
20370;DHT22;10344;47.592;9.600;2024-03-02T06:26:16;6.30;99.90
20370;DHT22;10344;47.592;9.600;2024-03-02T06:28:42;6.20;99.90
20370;DHT22;10344;47.592;9.600;2024-03-02T06:31:08;6.20;99.90
20370;DHT22;10344;47.592;9.600;2024-03-02T06:33:34;6.10;99.90
20370;DHT22;10344;47.592;9.600;2024-03-02T06:36:03;6.10;99.90
20370;DHT22;10344;47.592;9.600;2024-03-02T06:38:29;6.20;99.90
20370;DHT22;10344;47.592;9.600;2024-03-02T06:40:57;6.10;99.90
20370;DHT22;10344;47.592;9.600;2024-03-02T06:43:25;6.20;99.90
20370;DHT22;10344;47.592;9.600;2024-03-02T06:45:53;6.20;99.90
20370;DHT22;10344;47.592;9.600;2024-03-02T06:48:19;6.10;99.90
20370;DHT22;10344;47.592;9.600;2024-03-02T06:50:49;6.20;99.90
20370;DHT22;10344;47.592;9.600;2024-03-02T06:53:15;6.20;99.90
20370;DHT22;10344;47.592;9.600;2024-03-02T06:55:43;6.20;99.90
20370;DHT22;10344;47.592;9.600;2024-03-02T06:58:10;6.30;99.90
20370;DHT22;10344;47.592;9.600;2024-03-02T07:00:36;6.30;99.90
20370;DHT22;10344;47.592;9.600;2024-03-02T07:03:02;6.30;99.90
20370;DHT22;10344;47.592;9.600;2024-03-02T07:05:27;6.30;99.90
20370;DHT22;10344;47.592;9.600;2024-03-02T07:07:53;6.40;99.90
20370;DHT22;10344;47.592;9.600;2024-03-02T07:10:19;6.50;99.90
20370;DHT22;10344;47.592;9.600;2024-03-02T07:12:44;6.50;99.90
20370;DHT22;10344;47.592;9.600;2024-03-02T07:15:10;6.50;99.90
20370;DHT22;10344;47.592;9.600;2024-03-02T07:18:08;6.60;99.90
20370;DHT22;10344;47.592;9.600;2024-03-02T07:20:34;6.70;99.90
20370;DHT22;10344;47.592;9.600;2024-03-02T07:23:01;6.70;99.90
20370;DHT22;10344;47.592;9.600;2024-03-02T07:25:27;6.70;99.90
20370;DHT22;10344;47.592;9.600;2024-03-02T07:27:55;6.80;99.90
20370;DHT22;10344;47.592;9.600;2024-03-02T07:30:21;6.80;99.90
20370;DHT22;10344;47.592;9.600;2024-03-02T07:32:50;6.90;99.90
20370;DHT22;10344;47.592;9.600;2024-03-02T07:35:15;6.90;99.90
20370;DHT22;10344;47.592;9.600;2024-03-02T07:37:42;7.00;99.90
20370;DHT22;10344;47.592;9.600;2024-03-02T07:40:09;7.00;99.90
20370;DHT22;10344;47.592;9.600;2024-03-02T07:42:37;7.10;99.90
20370;DHT22;10344;47.592;9.600;2024-03-02T07:45:04;7.10;99.90
20370;DHT22;10344;47.592;9.600;2024-03-02T07:47:30;7.20;99.90
20370;DHT22;10344;47.592;9.600;2024-03-02T07:49:58;7.20;99.90
20370;DHT22;10344;47.592;9.600;2024-03-02T07:52:24;7.30;99.90
20370;DHT22;10344;47.592;9.600;2024-03-02T07:54:49;7.30;99.90
20370;DHT22;10344;47.592;9.600;2024-03-02T07:57:15;7.40;99.90
20370;DHT22;10344;47.592;9.600;2024-03-02T07:59:45;7.50;99.90
20370;DHT22;10344;47.592;9.600;2024-03-02T08:02:11;7.50;99.90
20370;DHT22;10344;47.592;9.600;2024-03-02T08:04:38;7.60;99.90
20370;DHT22;10344;47.592;9.600;2024-03-02T08:07:04;7.70;99.90
20370;DHT22;10344;47.592;9.600;2024-03-02T08:09:29;7.70;99.90
20370;DHT22;10344;47.592;9.600;2024-03-02T08:11:55;7.80;99.90
20370;DHT22;10344;47.592;9.600;2024-03-02T08:14:23;7.90;99.90
20370;DHT22;10344;47.592;9.600;2024-03-02T08:16:51;7.90;99.90
20370;DHT22;10344;47.592;9.600;2024-03-02T08:19:16;7.90;99.90
20370;DHT22;10344;47.592;9.600;2024-03-02T08:21:43;7.90;99.90
20370;DHT22;10344;47.592;9.600;2024-03-02T08:24:09;7.90;99.90
20370;DHT22;10344;47.592;9.600;2024-03-02T08:26:37;7.90;99.90
20370;DHT22;10344;47.592;9.600;2024-03-02T08:29:03;7.90;99.90
20370;DHT22;10344;47.592;9.600;2024-03-02T08:31:29;8.00;99.90
20370;DHT22;10344;47.592;9.600;2024-03-02T08:33:55;8.00;99.90
20370;DHT22;10344;47.592;9.600;2024-03-02T08:36:22;8.20;99.90
20370;DHT22;10344;47.592;9.600;2024-03-02T08:38:49;8.30;99.90
20370;DHT22;10344;47.592;9.600;2024-03-02T08:41:15;8.30;99.90
20370;DHT22;10344;47.592;9.600;2024-03-02T08:43:42;8.30;99.90
20370;DHT22;10344;47.592;9.600;2024-03-02T08:46:08;8.50;99.90
20370;DHT22;10344;47.592;9.600;2024-03-02T08:48:34;8.80;99.90
20370;DHT22;10344;47.592;9.600;2024-03-02T08:50:59;9.20;99.90
20370;DHT22;10344;47.592;9.600;2024-03-02T08:53:25;9.70;99.90
20370;DHT22;10344;47.592;9.600;2024-03-02T08:55:51;10.10;99.90
20370;DHT22;10344;47.592;9.600;2024-03-02T08:58:17;10.50;99.90
20370;DHT22;10344;47.592;9.600;2024-03-02T09:00:43;10.60;99.90
20370;DHT22;10344;47.592;9.600;2024-03-02T09:03:09;11.20;99.90
20370;DHT22;10344;47.592;9.600;2024-03-02T09:05:35;12.00;99.90
20370;DHT22;10344;47.592;9.600;2024-03-02T09:08:01;12.60;99.90
20370;DHT22;10344;47.592;9.600;2024-03-02T09:10:28;13.50;99.90
20370;DHT22;10344;47.592;9.600;2024-03-02T09:12:57;14.30;99.90
20370;DHT22;10344;47.592;9.600;2024-03-02T09:15:22;14.90;99.90
20370;DHT22;10344;47.592;9.600;2024-03-02T09:17:48;15.70;99.90
20370;DHT22;10344;47.592;9.600;2024-03-02T09:20:13;16.50;99.90
20370;DHT22;10344;47.592;9.600;2024-03-02T09:22:39;17.30;99.90
20370;DHT22;10344;47.592;9.600;2024-03-02T09:25:05;17.90;99.90
20370;DHT22;10344;47.592;9.600;2024-03-02T09:27:32;17.90;99.90
20370;DHT22;10344;47.592;9.600;2024-03-02T09:29:58;17.80;99.90
20370;DHT22;10344;47.592;9.600;2024-03-02T09:32:24;17.90;99.90
20370;DHT22;10344;47.592;9.600;2024-03-02T09:34:49;18.00;99.90
20370;DHT22;10344;47.592;9.600;2024-03-02T09:37:15;18.50;99.90
20370;DHT22;10344;47.592;9.600;2024-03-02T09:39:43;19.00;99.90
20370;DHT22;10344;47.592;9.600;2024-03-02T09:42:10;19.20;99.90
20370;DHT22;10344;47.592;9.600;2024-03-02T09:44:37;19.20;99.90
20370;DHT22;10344;47.592;9.600;2024-03-02T09:47:02;19.20;99.90
20370;DHT22;10344;47.592;9.600;2024-03-02T09:49:28;19.00;99.90
20370;DHT22;10344;47.592;9.600;2024-03-02T09:51:56;18.80;99.90
20370;DHT22;10344;47.592;9.600;2024-03-02T09:54:22;18.30;99.90
20370;DHT22;10344;47.592;9.600;2024-03-02T09:56:48;17.90;99.90
20370;DHT22;10344;47.592;9.600;2024-03-02T09:59:15;17.60;99.90
20370;DHT22;10344;47.592;9.600;2024-03-02T10:01:59;17.20;99.90
20370;DHT22;10344;47.592;9.600;2024-03-02T10:04:26;16.70;99.90
20370;DHT22;10344;47.592;9.600;2024-03-02T10:07:14;16.30;99.90
20370;DHT22;10344;47.592;9.600;2024-03-02T10:09:41;15.40;99.90
20370;DHT22;10344;47.592;9.600;2024-03-02T10:12:08;14.90;99.90
20370;DHT22;10344;47.592;9.600;2024-03-02T10:14:35;15.00;99.90
20370;DHT22;10344;47.592;9.600;2024-03-02T10:17:05;15.10;99.90
20370;DHT22;10344;47.592;9.600;2024-03-02T10:19:32;15.00;99.90
20370;DHT22;10344;47.592;9.600;2024-03-02T10:22:07;15.00;99.90
20370;DHT22;10344;47.592;9.600;2024-03-02T10:24:43;15.10;99.90
20370;DHT22;10344;47.592;9.600;2024-03-02T10:29:41;15.30;99.90
20370;DHT22;10344;47.592;9.600;2024-03-02T10:32:10;15.30;99.90
20370;DHT22;10344;47.592;9.600;2024-03-02T10:34:37;15.30;99.90
20370;DHT22;10344;47.592;9.600;2024-03-02T10:37:03;15.10;99.90
20370;DHT22;10344;47.592;9.600;2024-03-02T10:39:29;14.90;99.90
20370;DHT22;10344;47.592;9.600;2024-03-02T10:41:57;14.70;99.90
20370;DHT22;10344;47.592;9.600;2024-03-02T10:44:28;14.50;99.90
20370;DHT22;10344;47.592;9.600;2024-03-02T10:47:04;14.50;99.90
20370;DHT22;10344;47.592;9.600;2024-03-02T10:49:31;14.40;99.90
20370;DHT22;10344;47.592;9.600;2024-03-02T10:51:59;14.30;99.90
20370;DHT22;10344;47.592;9.600;2024-03-02T10:54:25;14.30;99.90
20370;DHT22;10344;47.592;9.600;2024-03-02T10:56:53;14.20;99.90
20370;DHT22;10344;47.592;9.600;2024-03-02T11:01:56;14.30;99.90
20370;DHT22;10344;47.592;9.600;2024-03-02T11:04:26;14.50;99.90
20370;DHT22;10344;47.592;9.600;2024-03-02T11:06:54;14.60;99.90
20370;DHT22;10344;47.592;9.600;2024-03-02T11:09:24;14.90;99.90
20370;DHT22;10344;47.592;9.600;2024-03-02T11:12:19;15.00;99.90
20370;DHT22;10344;47.592;9.600;2024-03-02T11:14:48;15.30;99.90
20370;DHT22;10344;47.592;9.600;2024-03-02T11:17:16;15.60;99.90
20370;DHT22;10344;47.592;9.600;2024-03-02T11:19:43;15.70;99.90
20370;DHT22;10344;47.592;9.600;2024-03-02T11:22:09;15.80;99.90
20370;DHT22;10344;47.592;9.600;2024-03-02T11:24:35;15.80;99.90
20370;DHT22;10344;47.592;9.600;2024-03-02T11:27:03;15.80;99.90
20370;DHT22;10344;47.592;9.600;2024-03-02T11:32:17;15.50;99.90
20370;DHT22;10344;47.592;9.600;2024-03-02T11:34:47;15.20;99.90
20370;DHT22;10344;47.592;9.600;2024-03-02T11:37:15;14.70;99.90
20370;DHT22;10344;47.592;9.600;2024-03-02T11:39:45;14.40;99.90
20370;DHT22;10344;47.592;9.600;2024-03-02T11:42:12;14.40;99.90
20370;DHT22;10344;47.592;9.600;2024-03-02T11:44:44;14.50;99.90
20370;DHT22;10344;47.592;9.600;2024-03-02T11:47:14;14.70;99.90
20370;DHT22;10344;47.592;9.600;2024-03-02T11:49:50;14.70;99.90
20370;DHT22;10344;47.592;9.600;2024-03-02T11:52:17;14.50;99.90
20370;DHT22;10344;47.592;9.600;2024-03-02T11:54:49;14.30;99.90
20370;DHT22;10344;47.592;9.600;2024-03-02T11:57:20;14.10;99.90
20370;DHT22;10344;47.592;9.600;2024-03-02T11:59:49;14.00;99.90
20370;DHT22;10344;47.592;9.600;2024-03-02T12:02:21;14.10;99.90
20370;DHT22;10344;47.592;9.600;2024-03-02T12:04:48;14.40;99.90
20370;DHT22;10344;47.592;9.600;2024-03-02T12:07:21;14.50;99.90
20370;DHT22;10344;47.592;9.600;2024-03-02T12:09:48;14.90;99.90
20370;DHT22;10344;47.592;9.600;2024-03-02T12:12:14;15.30;99.90
20370;DHT22;10344;47.592;9.600;2024-03-02T12:14:53;15.40;99.90
20370;DHT22;10344;47.592;9.600;2024-03-02T12:17:21;15.20;99.90
20370;DHT22;10344;47.592;9.600;2024-03-02T12:19:47;15.10;99.90
20370;DHT22;10344;47.592;9.600;2024-03-02T12:22:15;15.10;99.90
20370;DHT22;10344;47.592;9.600;2024-03-02T12:24:42;14.60;99.90
20370;DHT22;10344;47.592;9.600;2024-03-02T12:27:11;14.00;99.90
20370;DHT22;10344;47.592;9.600;2024-03-02T12:29:38;13.30;99.90
20370;DHT22;10344;47.592;9.600;2024-03-02T12:32:05;12.90;99.90
20370;DHT22;10344;47.592;9.600;2024-03-02T12:34:31;12.60;99.90
20370;DHT22;10344;47.592;9.600;2024-03-02T12:36:59;12.50;99.90
20370;DHT22;10344;47.592;9.600;2024-03-02T12:39:28;12.50;99.90
20370;DHT22;10344;47.592;9.600;2024-03-02T12:41:56;12.40;99.90
20370;DHT22;10344;47.592;9.600;2024-03-02T12:44:21;12.10;99.90
20370;DHT22;10344;47.592;9.600;2024-03-02T12:46:49;12.00;99.90
20370;DHT22;10344;47.592;9.600;2024-03-02T12:49:15;12.00;99.90
20370;DHT22;10344;47.592;9.600;2024-03-02T12:51:46;11.80;99.90
20370;DHT22;10344;47.592;9.600;2024-03-02T12:54:17;11.80;99.90
20370;DHT22;10344;47.592;9.600;2024-03-02T12:56:45;11.90;99.90
20370;DHT22;10344;47.592;9.600;2024-03-02T12:59:18;12.00;99.90
20370;DHT22;10344;47.592;9.600;2024-03-02T13:01:52;12.10;99.90
20370;DHT22;10344;47.592;9.600;2024-03-02T13:04:22;12.10;99.90
20370;DHT22;10344;47.592;9.600;2024-03-02T13:06:48;12.10;99.90
20370;DHT22;10344;47.592;9.600;2024-03-02T13:09:17;12.20;99.90
20370;DHT22;10344;47.592;9.600;2024-03-02T13:11:43;12.30;99.90
20370;DHT22;10344;47.592;9.600;2024-03-02T13:14:12;12.30;99.90
20370;DHT22;10344;47.592;9.600;2024-03-02T13:16:42;12.50;99.90
20370;DHT22;10344;47.592;9.600;2024-03-02T13:19:08;12.60;99.90
20370;DHT22;10344;47.592;9.600;2024-03-02T13:21:34;12.80;99.90
20370;DHT22;10344;47.592;9.600;2024-03-02T13:24:00;12.90;99.90
20370;DHT22;10344;47.592;9.600;2024-03-02T13:26:26;12.90;99.90
20370;DHT22;10344;47.592;9.600;2024-03-02T13:28:55;12.90;99.90
20370;DHT22;10344;47.592;9.600;2024-03-02T13:31:20;12.90;99.90
20370;DHT22;10344;47.592;9.600;2024-03-02T13:33:46;12.80;99.90
20370;DHT22;10344;47.592;9.600;2024-03-02T13:36:12;12.80;99.90
20370;DHT22;10344;47.592;9.600;2024-03-02T13:38:40;12.80;99.90
20370;DHT22;10344;47.592;9.600;2024-03-02T13:41:05;12.90;99.90
20370;DHT22;10344;47.592;9.600;2024-03-02T13:43:31;13.00;99.90
20370;DHT22;10344;47.592;9.600;2024-03-02T13:45:58;13.20;99.90
20370;DHT22;10344;47.592;9.600;2024-03-02T13:48:26;13.30;99.90
20370;DHT22;10344;47.592;9.600;2024-03-02T13:50:52;13.40;99.90
20370;DHT22;10344;47.592;9.600;2024-03-02T13:53:18;13.40;99.90
20370;DHT22;10344;47.592;9.600;2024-03-02T13:55:44;13.60;99.90
20370;DHT22;10344;47.592;9.600;2024-03-02T13:58:10;13.70;99.90
20370;DHT22;10344;47.592;9.600;2024-03-02T14:00:37;13.80;99.90
20370;DHT22;10344;47.592;9.600;2024-03-02T14:03:04;14.00;99.90
20370;DHT22;10344;47.592;9.600;2024-03-02T14:05:30;14.10;99.90
20370;DHT22;10344;47.592;9.600;2024-03-02T14:07:58;14.30;99.90
20370;DHT22;10344;47.592;9.600;2024-03-02T14:10:26;14.40;99.90
20370;DHT22;10344;47.592;9.600;2024-03-02T14:12:52;14.70;99.90
20370;DHT22;10344;47.592;9.600;2024-03-02T14:15:18;15.10;99.90
20370;DHT22;10344;47.592;9.600;2024-03-02T14:17:46;15.40;99.90
20370;DHT22;10344;47.592;9.600;2024-03-02T14:20:12;15.60;99.90
20370;DHT22;10344;47.592;9.600;2024-03-02T14:22:40;15.70;99.90
20370;DHT22;10344;47.592;9.600;2024-03-02T14:25:06;15.70;99.90
20370;DHT22;10344;47.592;9.600;2024-03-02T14:27:31;15.40;99.90
20370;DHT22;10344;47.592;9.600;2024-03-02T14:29:57;15.20;99.90
20370;DHT22;10344;47.592;9.600;2024-03-02T14:32:23;15.10;99.90
20370;DHT22;10344;47.592;9.600;2024-03-02T14:34:48;15.00;99.90
20370;DHT22;10344;47.592;9.600;2024-03-02T14:37:15;14.60;99.90
20370;DHT22;10344;47.592;9.600;2024-03-02T14:39:41;14.20;99.90
20370;DHT22;10344;47.592;9.600;2024-03-02T14:42:06;13.70;99.90
20370;DHT22;10344;47.592;9.600;2024-03-02T14:44:34;13.40;99.90
20370;DHT22;10344;47.592;9.600;2024-03-02T14:47:01;13.20;99.90
20370;DHT22;10344;47.592;9.600;2024-03-02T14:49:28;13.10;99.90
20370;DHT22;10344;47.592;9.600;2024-03-02T14:51:54;12.90;99.90
20370;DHT22;10344;47.592;9.600;2024-03-02T14:54:20;12.90;99.90
20370;DHT22;10344;47.592;9.600;2024-03-02T14:56:46;12.90;99.90
20370;DHT22;10344;47.592;9.600;2024-03-02T14:59:12;12.90;99.90
20370;DHT22;10344;47.592;9.600;2024-03-02T15:01:37;13.00;99.90
20370;DHT22;10344;47.592;9.600;2024-03-02T15:04:04;13.00;99.90
20370;DHT22;10344;47.592;9.600;2024-03-02T15:06:29;13.00;99.90
20370;DHT22;10344;47.592;9.600;2024-03-02T15:08:56;13.00;99.90
20370;DHT22;10344;47.592;9.600;2024-03-02T15:11:21;13.10;99.90
20370;DHT22;10344;47.592;9.600;2024-03-02T15:13:50;13.20;99.90
20370;DHT22;10344;47.592;9.600;2024-03-02T15:16:16;13.40;99.90
20370;DHT22;10344;47.592;9.600;2024-03-02T15:18:42;13.20;99.90
20370;DHT22;10344;47.592;9.600;2024-03-02T15:21:10;12.90;99.90
20370;DHT22;10344;47.592;9.600;2024-03-02T15:23:35;12.70;99.90
20370;DHT22;10344;47.592;9.600;2024-03-02T15:26:01;12.40;99.90
20370;DHT22;10344;47.592;9.600;2024-03-02T15:28:27;12.10;99.90
20370;DHT22;10344;47.592;9.600;2024-03-02T15:30:52;12.00;99.90
20370;DHT22;10344;47.592;9.600;2024-03-02T15:33:18;11.90;99.90
20370;DHT22;10344;47.592;9.600;2024-03-02T15:35:44;11.80;99.90
20370;DHT22;10344;47.592;9.600;2024-03-02T15:38:09;11.70;99.90
20370;DHT22;10344;47.592;9.600;2024-03-02T15:40:40;11.70;99.90
20370;DHT22;10344;47.592;9.600;2024-03-02T15:43:06;11.70;99.90
20370;DHT22;10344;47.592;9.600;2024-03-02T15:45:31;11.60;99.90
20370;DHT22;10344;47.592;9.600;2024-03-02T15:48:01;11.50;99.90
20370;DHT22;10344;47.592;9.600;2024-03-02T15:50:27;11.30;99.90
20370;DHT22;10344;47.592;9.600;2024-03-02T15:52:55;11.20;99.90